createdAt,value
2023-02-15T00:02:03.323Z,18.81
2023-02-15T00:04:47.566Z,18.83
2023-02-15T00:07:16.390Z,18.82
2023-02-15T00:09:43.464Z,18.82
2023-02-15T00:12:11.257Z,18.82
2023-02-15T00:14:38.545Z,18.80
2023-02-15T00:17:05.879Z,18.80
2023-02-15T00:19:32.891Z,18.81
2023-02-15T00:21:59.881Z,18.78
2023-02-15T00:24:26.858Z,18.77
2023-02-15T00:26:54.042Z,18.78
2023-02-15T00:29:21.703Z,18.75
2023-02-15T00:31:49.779Z,18.77
2023-02-15T00:34:19.217Z,18.76
2023-02-15T00:36:46.434Z,18.73
2023-02-15T00:39:13.726Z,18.74
2023-02-15T00:41:40.976Z,18.75
2023-02-15T00:44:08.104Z,18.74
2023-02-15T00:46:35.859Z,18.72
2023-02-15T00:49:03.540Z,18.73
2023-02-15T00:51:30.615Z,18.72
2023-02-15T00:53:57.820Z,18.70
2023-02-15T00:56:25.197Z,18.72
2023-02-15T00:58:52.347Z,18.71
2023-02-15T01:01:22.083Z,18.70
2023-02-15T01:03:49.193Z,18.71
2023-02-15T01:06:17.036Z,18.70
2023-02-15T01:08:45.780Z,18.70
2023-02-15T01:11:14.468Z,18.70
2023-02-15T01:13:41.991Z,18.68
2023-02-15T01:16:09.424Z,18.66
2023-02-15T01:18:37.132Z,18.69
2023-02-15T01:21:09.061Z,18.67
2023-02-15T01:23:36.148Z,18.65
2023-02-15T01:26:03.909Z,18.66
2023-02-15T01:28:31.043Z,18.65
2023-02-15T01:30:58.014Z,18.64
2023-02-15T01:33:25.098Z,18.67
2023-02-15T01:35:57.918Z,18.65
2023-02-15T01:38:24.888Z,18.64
2023-02-15T01:40:52.743Z,18.63
2023-02-15T01:43:19.870Z,18.63
2023-02-15T01:45:48.770Z,18.61
2023-02-15T01:48:17.093Z,18.61
2023-02-15T01:50:45.860Z,18.60
2023-02-15T01:53:15.825Z,18.60
2023-02-15T01:55:48.871Z,18.60
2023-02-15T01:58:16.118Z,18.60
2023-02-15T02:00:43.646Z,18.60
2023-02-15T02:03:10.584Z,18.57
2023-02-15T02:05:39.357Z,18.57
2023-02-15T02:08:06.468Z,18.59
2023-02-15T02:10:33.345Z,18.57
2023-02-15T02:13:02.673Z,18.58
2023-02-15T02:15:32.607Z,18.56
2023-02-15T02:18:00.830Z,18.56
2023-02-15T02:20:30.667Z,18.56
2023-02-15T02:23:00.653Z,18.57
2023-02-15T02:25:30.585Z,18.56
2023-02-15T02:28:00.619Z,18.56
2023-02-15T02:30:30.681Z,18.55
2023-02-15T02:33:01.039Z,18.54
2023-02-15T02:35:31.743Z,18.55
2023-02-15T02:38:02.396Z,18.54
2023-02-15T02:40:32.551Z,18.53
2023-02-15T02:43:02.921Z,18.53
2023-02-15T02:45:34.046Z,18.51
2023-02-15T02:48:05.038Z,18.52
2023-02-15T02:50:32.177Z,18.52
2023-02-15T02:52:59.987Z,18.51
2023-02-15T02:55:28.234Z,18.51
2023-02-15T02:57:58.244Z,18.51
2023-02-15T03:00:27.357Z,18.50
2023-02-15T03:02:59.575Z,18.51
2023-02-15T03:05:28.497Z,18.49
2023-02-15T03:07:58.245Z,18.50
2023-02-15T03:10:26.017Z,18.48
2023-02-15T03:12:53.593Z,18.48
2023-02-15T03:15:24.391Z,18.47
2023-02-15T03:17:56.490Z,18.46
2023-02-15T03:20:26.633Z,18.48
2023-02-15T03:22:56.402Z,18.47
2023-02-15T03:25:23.760Z,18.46
2023-02-15T03:27:52.483Z,18.46
2023-02-15T03:30:19.985Z,18.44
2023-02-15T03:32:48.985Z,18.45
2023-02-15T03:35:15.993Z,18.43
2023-02-15T03:37:45.755Z,18.43
2023-02-15T03:40:20.727Z,18.44
2023-02-15T03:42:50.399Z,18.42
2023-02-15T03:45:19.134Z,18.43
2023-02-15T03:47:47.832Z,18.41
2023-02-15T03:50:20.799Z,18.41
2023-02-15T03:52:47.770Z,18.42
2023-02-15T03:55:14.664Z,18.42
2023-02-15T03:57:44.778Z,18.40
2023-02-15T04:00:18.404Z,18.41
2023-02-15T04:02:51.227Z,18.39
2023-02-15T04:05:18.393Z,18.38
2023-02-15T04:07:45.309Z,18.38
2023-02-15T04:10:15.192Z,18.38
2023-02-15T04:12:42.158Z,18.38
2023-02-15T04:15:16.151Z,18.37
2023-02-15T04:17:42.972Z,18.36
2023-02-15T04:20:13.108Z,18.38
2023-02-15T04:22:43.108Z,18.35
2023-02-15T04:25:12.720Z,18.36
2023-02-15T04:27:40.308Z,18.35
2023-02-15T04:30:07.794Z,18.33
2023-02-15T04:32:35.440Z,18.32
2023-02-15T04:35:02.419Z,18.31
2023-02-15T04:37:29.227Z,18.32
2023-02-15T04:39:56.145Z,18.30
2023-02-15T04:42:23.140Z,18.29
2023-02-15T04:44:50.068Z,18.29
2023-02-15T04:47:16.995Z,18.28
2023-02-15T04:49:43.850Z,18.28
2023-02-15T04:52:11.018Z,18.29
2023-02-15T04:54:39.391Z,18.28
2023-02-15T04:57:06.782Z,18.29
2023-02-15T04:59:33.748Z,18.28
2023-02-15T05:02:00.712Z,18.28
2023-02-15T05:04:27.686Z,18.28
2023-02-15T05:06:54.775Z,18.27
2023-02-15T05:09:21.676Z,18.27
2023-02-15T05:11:48.552Z,18.28
2023-02-15T05:14:15.594Z,18.26
2023-02-15T05:16:42.549Z,18.27
2023-02-15T05:19:09.606Z,18.24
2023-02-15T05:21:36.558Z,18.24
2023-02-15T05:24:23.593Z,18.23
2023-02-15T05:26:53.674Z,18.23
2023-02-15T05:29:20.572Z,18.25
2023-02-15T05:31:48.804Z,18.21
2023-02-15T05:34:15.921Z,18.26
2023-02-15T05:36:42.853Z,18.20
2023-02-15T05:39:09.718Z,18.22
2023-02-15T05:41:36.710Z,18.21
2023-02-15T05:44:03.759Z,18.22
2023-02-15T05:46:30.806Z,18.21
2023-02-15T05:48:58.151Z,18.21
2023-02-15T05:51:24.963Z,18.19
2023-02-15T05:53:51.840Z,18.19
2023-02-15T05:56:18.717Z,18.20
2023-02-15T05:58:45.758Z,18.19
2023-02-15T06:01:14.227Z,18.18
2023-02-15T06:03:41.759Z,18.19
2023-02-15T06:06:09.209Z,18.17
2023-02-15T06:08:36.638Z,18.17
2023-02-15T06:11:04.003Z,18.17
2023-02-15T06:13:31.215Z,18.16
2023-02-15T06:15:58.170Z,18.17
2023-02-15T06:18:25.042Z,18.15
2023-02-15T06:20:51.873Z,18.15
2023-02-15T06:23:18.955Z,18.16
2023-02-15T06:25:46.831Z,18.15
2023-02-15T06:28:13.939Z,18.14
2023-02-15T06:30:40.937Z,18.13
2023-02-15T06:33:07.822Z,18.14
2023-02-15T06:35:34.873Z,18.14
2023-02-15T06:38:01.744Z,18.12
2023-02-15T06:40:28.639Z,18.12
2023-02-15T06:42:55.545Z,18.13
2023-02-15T06:45:22.475Z,18.11
2023-02-15T06:47:49.451Z,18.11
2023-02-15T06:50:16.483Z,18.12
2023-02-15T06:52:43.606Z,18.10
2023-02-15T06:55:10.443Z,18.11
2023-02-15T06:57:37.759Z,18.10
2023-02-15T07:00:06.253Z,18.11
2023-02-15T07:02:33.362Z,18.10
2023-02-15T07:05:00.694Z,18.10
2023-02-15T07:07:27.681Z,18.09
2023-02-15T07:09:54.567Z,18.08
2023-02-15T07:12:24.473Z,18.06
2023-02-15T07:14:51.464Z,18.07
2023-02-15T07:17:35.080Z,18.07
2023-02-15T07:20:04.472Z,18.08
2023-02-15T07:22:31.334Z,18.08
2023-02-15T07:24:58.553Z,18.09
2023-02-15T07:27:25.473Z,18.08
2023-02-15T07:29:52.331Z,18.07
2023-02-15T07:32:19.640Z,18.06
2023-02-15T07:34:46.644Z,18.05
2023-02-15T07:37:13.518Z,18.04
2023-02-15T07:39:40.542Z,18.04
2023-02-15T07:42:07.524Z,18.04
2023-02-15T07:44:34.634Z,18.04
2023-02-15T07:47:01.689Z,18.03
2023-02-15T07:49:29.220Z,18.04
2023-02-15T07:51:56.182Z,18.04
2023-02-15T07:54:23.355Z,18.04
2023-02-15T07:56:50.248Z,18.04
2023-02-15T07:59:17.220Z,18.01
2023-02-15T08:01:44.163Z,18.03
2023-02-15T08:04:12.585Z,17.99
2023-02-15T08:06:39.857Z,18.02
2023-02-15T08:09:08.045Z,18.01
2023-02-15T08:11:36.603Z,18.00
2023-02-15T08:14:06.607Z,17.99
2023-02-15T08:16:35.232Z,18.00
2023-02-15T08:19:05.097Z,17.99
2023-02-15T08:21:32.739Z,18.00
2023-02-15T08:23:59.812Z,18.00
2023-02-15T08:26:28.627Z,17.99
2023-02-15T08:28:56.075Z,18.00
2023-02-15T08:31:23.537Z,17.98
2023-02-15T08:33:52.130Z,17.97
2023-02-15T08:36:20.928Z,18.00
2023-02-15T08:38:48.038Z,17.95
2023-02-15T08:41:16.580Z,17.98
2023-02-15T08:43:44.258Z,17.96
2023-02-15T08:46:12.617Z,17.95
2023-02-15T08:48:40.319Z,17.96
2023-02-15T08:51:08.378Z,17.94
2023-02-15T08:53:35.731Z,17.95
2023-02-15T08:56:03.424Z,17.95
2023-02-15T08:58:32.017Z,17.93
2023-02-15T09:00:59.432Z,17.95
2023-02-15T09:03:26.952Z,17.93
2023-02-15T09:06:00.270Z,17.93
2023-02-15T09:08:27.919Z,17.94
2023-02-15T09:10:55.311Z,17.93
2023-02-15T09:13:22.693Z,17.93
2023-02-15T09:15:49.932Z,17.91
2023-02-15T09:18:18.609Z,17.91
2023-02-15T09:20:46.064Z,17.92
2023-02-15T09:23:25.506Z,17.93
2023-02-15T09:25:53.709Z,17.91
2023-02-15T09:28:20.610Z,17.90
2023-02-15T09:30:48.088Z,17.91
2023-02-15T09:33:15.125Z,17.91
2023-02-15T09:35:42.292Z,17.92
2023-02-15T09:38:10.527Z,17.91
2023-02-15T09:40:42.310Z,17.93
2023-02-15T09:43:19.358Z,17.90
2023-02-15T09:45:49.679Z,17.95
2023-02-15T09:48:19.881Z,17.93
2023-02-15T09:50:50.090Z,17.91
2023-02-15T09:53:18.321Z,17.94
2023-02-15T09:55:48.404Z,17.92
2023-02-15T09:58:18.514Z,17.92
2023-02-15T10:00:48.601Z,17.92
2023-02-15T10:03:16.007Z,17.92
2023-02-15T10:05:43.287Z,17.93
2023-02-15T10:08:13.744Z,17.92
2023-02-15T10:10:46.266Z,17.93
2023-02-15T10:13:16.704Z,17.91
2023-02-15T10:15:53.492Z,17.91
2023-02-15T10:18:24.221Z,17.92
2023-02-15T10:20:57.181Z,17.91
2023-02-15T10:23:33.418Z,17.91
2023-02-15T10:26:04.228Z,17.94
2023-02-15T10:28:39.292Z,17.94
2023-02-15T10:31:14.309Z,17.93
2023-02-15T10:33:42.623Z,17.93
2023-02-15T10:36:19.747Z,17.94
2023-02-15T10:38:48.456Z,17.96
2023-02-15T10:41:15.950Z,17.95
2023-02-15T10:43:50.767Z,17.97
2023-02-15T10:46:18.465Z,17.97
2023-02-15T10:48:48.617Z,17.97
2023-02-15T10:51:21.572Z,17.98
2023-02-15T10:53:50.055Z,17.96
2023-02-15T10:56:21.248Z,17.97
2023-02-15T10:58:49.040Z,17.97
2023-02-15T11:01:21.262Z,17.98
2023-02-15T11:03:49.900Z,17.99
2023-02-15T11:06:18.812Z,17.99
2023-02-15T11:08:47.935Z,18.00
2023-02-15T11:11:21.927Z,18.00
2023-02-15T11:13:51.770Z,18.03
2023-02-15T11:16:21.520Z,18.01
2023-02-15T11:18:52.847Z,18.03
2023-02-15T11:21:23.024Z,18.03
2023-02-15T11:23:54.123Z,18.06
2023-02-15T11:26:24.410Z,18.09
2023-02-15T11:28:56.733Z,18.09
2023-02-15T11:31:24.652Z,18.11
2023-02-15T11:33:55.368Z,18.13
2023-02-15T11:36:26.456Z,18.15
2023-02-15T11:38:58.348Z,18.15
2023-02-15T11:41:29.014Z,18.14
2023-02-15T11:43:59.665Z,18.16
2023-02-15T11:46:26.980Z,18.17
2023-02-15T11:48:54.441Z,18.23
2023-02-15T11:51:24.320Z,18.22
2023-02-15T11:53:51.613Z,18.24
2023-02-15T11:56:20.181Z,18.25
2023-02-15T11:58:50.929Z,18.22
2023-02-15T12:01:21.893Z,18.20
2023-02-15T12:03:50.595Z,18.23
2023-02-15T12:06:23.234Z,18.25
2023-02-15T12:08:54.185Z,18.26
2023-02-15T12:11:27.225Z,18.26
2023-02-15T12:13:57.852Z,18.29
2023-02-15T12:16:25.451Z,18.28
2023-02-15T12:18:54.278Z,18.30
2023-02-15T12:21:24.339Z,18.29
2023-02-15T12:23:54.123Z,18.29
2023-02-15T12:26:24.189Z,18.29
2023-02-15T12:28:53.421Z,18.31
2023-02-15T12:31:23.386Z,18.32
2023-02-15T12:33:52.462Z,18.31
2023-02-15T12:36:21.784Z,18.35
2023-02-15T12:38:51.861Z,18.35
2023-02-15T12:41:22.123Z,18.38
2023-02-15T12:44:04.060Z,18.40
2023-02-15T12:46:37.979Z,18.41
2023-02-15T12:49:09.314Z,18.44
2023-02-15T12:51:43.160Z,18.44
2023-02-15T12:54:23.442Z,18.48
2023-02-15T12:56:51.087Z,18.47
2023-02-15T12:59:23.109Z,18.53
2023-02-15T13:01:52.821Z,18.49
2023-02-15T13:04:20.370Z,18.53
2023-02-15T13:06:50.214Z,18.49
2023-02-15T13:09:19.657Z,18.50
2023-02-15T13:11:48.153Z,18.50
2023-02-15T13:14:18.616Z,18.52
2023-02-15T13:16:47.809Z,18.51
2023-02-15T13:19:18.147Z,18.55
2023-02-15T13:21:46.666Z,18.56
2023-02-15T13:24:17.585Z,18.58
2023-02-15T13:26:46.408Z,18.57
2023-02-15T13:29:18.510Z,18.57
2023-02-15T13:31:46.160Z,18.59
2023-02-15T13:34:15.159Z,18.58
2023-02-15T13:36:44.805Z,18.60
2023-02-15T13:39:14.893Z,18.58
2023-02-15T13:41:45.180Z,18.60
2023-02-15T13:44:15.830Z,18.60
2023-02-15T13:46:44.640Z,18.61
2023-02-15T13:49:20.456Z,18.65
2023-02-15T13:51:48.019Z,18.64
2023-02-15T13:54:16.778Z,18.61
2023-02-15T13:56:49.824Z,18.62
2023-02-15T13:59:20.621Z,18.63
2023-02-15T14:01:55.033Z,18.61
2023-02-15T14:04:25.418Z,18.65
2023-02-15T14:06:57.094Z,18.62
2023-02-15T14:09:25.663Z,18.62
2023-02-15T14:11:55.980Z,18.60
2023-02-15T14:14:26.419Z,18.60
2023-02-15T14:17:06.659Z,18.64
2023-02-15T14:19:38.386Z,18.62
2023-02-15T14:22:10.660Z,18.61
2023-02-15T14:24:44.695Z,18.63
2023-02-15T14:27:14.924Z,18.61
2023-02-15T14:29:42.581Z,18.61
2023-02-15T14:32:13.506Z,18.62
2023-02-15T14:34:43.182Z,18.64
2023-02-15T14:37:12.864Z,18.63
2023-02-15T14:39:46.372Z,18.61
2023-02-15T14:42:13.896Z,18.60
2023-02-15T14:44:44.650Z,18.63
2023-02-15T14:47:16.572Z,18.64
2023-02-15T14:49:44.161Z,18.67
2023-02-15T14:52:12.945Z,18.67
2023-02-15T14:54:40.535Z,18.63
2023-02-15T14:57:08.047Z,18.67
2023-02-15T14:59:38.645Z,18.65
2023-02-15T15:02:09.279Z,18.67
2023-02-15T15:04:39.930Z,18.64
2023-02-15T15:07:10.397Z,18.65
2023-02-15T15:09:39.440Z,18.65
2023-02-15T15:12:09.776Z,18.68
2023-02-15T15:14:37.452Z,18.69
2023-02-15T15:17:06.164Z,18.70
2023-02-15T15:19:50.884Z,18.74
2023-02-15T15:22:22.445Z,18.79
2023-02-15T15:24:50.823Z,18.83
2023-02-15T15:27:21.245Z,18.88
2023-02-15T15:29:48.418Z,18.94
2023-02-15T15:32:20.240Z,19.00
2023-02-15T15:34:47.776Z,19.06
2023-02-15T15:37:17.978Z,19.14
2023-02-15T15:39:45.533Z,19.20
2023-02-15T15:42:17.262Z,19.26
2023-02-15T15:44:53.057Z,19.31
2023-02-15T15:47:23.396Z,19.37
2023-02-15T15:49:50.724Z,19.43
2023-02-15T15:52:20.357Z,19.47
2023-02-15T15:54:51.737Z,19.53
2023-02-15T15:57:21.890Z,19.58
2023-02-15T15:59:49.699Z,19.64
2023-02-15T16:02:19.018Z,19.69
2023-02-15T16:04:48.476Z,19.74
2023-02-15T16:07:18.667Z,19.79
2023-02-15T16:09:49.155Z,19.85
2023-02-15T16:12:19.131Z,19.89
2023-02-15T16:14:48.770Z,19.94
2023-02-15T16:17:19.315Z,19.98
2023-02-15T16:19:46.642Z,20.04
2023-02-15T16:22:17.634Z,20.09
2023-02-15T16:24:47.834Z,20.12
2023-02-15T16:27:20.912Z,20.18
2023-02-15T16:29:48.102Z,20.23
2023-02-15T16:32:18.955Z,20.26
2023-02-15T16:34:49.388Z,20.33
2023-02-15T16:37:17.409Z,20.37
2023-02-15T16:39:45.558Z,20.40
2023-02-15T16:42:13.636Z,20.44
2023-02-15T16:44:41.793Z,20.48
2023-02-15T16:47:16.543Z,20.53
2023-02-15T16:49:46.194Z,20.56
2023-02-15T16:52:17.215Z,20.60
2023-02-15T16:54:44.577Z,20.64
2023-02-15T16:57:15.007Z,20.66
2023-02-15T16:59:46.482Z,20.68
2023-02-15T17:02:37.286Z,20.72
2023-02-15T17:05:08.266Z,20.73
2023-02-15T17:07:39.921Z,20.73
2023-02-15T17:10:26.793Z,20.75
2023-02-15T17:12:58.162Z,20.77
2023-02-15T17:15:28.240Z,20.79
2023-02-15T17:17:57.503Z,20.79
2023-02-15T17:20:25.276Z,20.80
2023-02-15T17:22:53.282Z,20.83
2023-02-15T17:25:22.643Z,20.82
2023-02-15T17:27:52.813Z,20.83
2023-02-15T17:30:26.123Z,20.83
2023-02-15T17:33:34.289Z,20.84
2023-02-15T17:36:04.501Z,20.82
2023-02-15T17:38:31.780Z,20.80
2023-02-15T17:40:59.612Z,20.77
2023-02-15T17:43:29.377Z,20.80
2023-02-15T17:45:58.503Z,20.79
2023-02-15T17:48:32.098Z,20.77
2023-02-15T17:51:00.272Z,20.73
2023-02-15T17:53:27.595Z,20.71
2023-02-15T17:55:54.944Z,20.69
2023-02-15T17:58:23.505Z,20.59
2023-02-15T18:00:56.001Z,20.51
2023-02-15T18:03:28.107Z,20.49
2023-02-15T18:05:58.708Z,20.44
2023-02-15T18:08:30.959Z,20.46
2023-02-15T18:11:01.849Z,20.49
2023-02-15T18:13:29.202Z,20.51
2023-02-15T18:15:57.117Z,20.51
2023-02-15T18:18:25.036Z,20.50
2023-02-15T18:20:52.483Z,20.45
2023-02-15T18:23:19.719Z,20.44
2023-02-15T18:25:47.350Z,20.42
2023-02-15T18:28:15.038Z,20.44
2023-02-15T18:30:44.573Z,20.40
2023-02-15T18:33:20.580Z,20.32
2023-02-15T18:35:50.450Z,20.38
2023-02-15T18:38:17.736Z,20.42
2023-02-15T18:40:45.100Z,20.42
2023-02-15T18:43:13.764Z,20.33
2023-02-15T18:45:42.120Z,20.30
2023-02-15T18:48:10.604Z,20.26
2023-02-15T18:50:39.186Z,20.24
2023-02-15T18:53:07.189Z,20.25
2023-02-15T18:55:35.863Z,20.24
2023-02-15T18:58:03.140Z,20.23
2023-02-15T19:00:33.773Z,20.16
2023-02-15T19:03:02.617Z,20.18
2023-02-15T19:05:31.677Z,20.17
2023-02-15T19:08:01.459Z,20.17
2023-02-15T19:10:31.514Z,20.16
2023-02-15T19:13:01.134Z,20.20
2023-02-15T19:15:33.097Z,20.21
2023-02-15T19:18:03.142Z,20.22
2023-02-15T19:20:33.244Z,20.19
2023-02-15T19:23:02.592Z,20.25
2023-02-15T19:25:31.973Z,20.27
2023-02-15T19:27:59.782Z,20.39
2023-02-15T19:30:30.856Z,20.34
2023-02-15T19:32:59.933Z,20.29
2023-02-15T19:35:30.821Z,20.26
2023-02-15T19:38:00.474Z,20.21
2023-02-15T19:40:30.684Z,20.17
2023-02-15T19:42:59.613Z,20.12
2023-02-15T19:45:28.586Z,20.08
2023-02-15T19:47:57.168Z,20.07
2023-02-15T19:50:26.568Z,19.97
2023-02-15T19:52:54.737Z,19.94
2023-02-15T19:55:24.902Z,19.94
2023-02-15T19:57:53.264Z,19.93
2023-02-15T20:00:23.753Z,19.91
2023-02-15T20:02:52.722Z,19.88
2023-02-15T20:05:21.883Z,19.88
2023-02-15T20:07:51.547Z,19.85
2023-02-15T20:10:22.854Z,19.84
2023-02-15T20:12:52.832Z,19.82
2023-02-15T20:15:23.069Z,19.81
2023-02-15T20:17:51.607Z,19.78
2023-02-15T20:20:20.484Z,19.76
2023-02-15T20:22:50.711Z,19.74
2023-02-15T20:25:22.012Z,19.71
2023-02-15T20:27:51.168Z,19.68
2023-02-15T20:30:21.325Z,19.68
2023-02-15T20:32:50.750Z,19.64
2023-02-15T20:35:20.218Z,19.62
2023-02-15T20:37:50.306Z,19.60
2023-02-15T20:40:21.343Z,19.58
2023-02-15T20:42:49.894Z,19.60
2023-02-15T20:45:21.744Z,19.58
2023-02-15T20:47:51.270Z,19.58
2023-02-15T20:50:22.252Z,19.53
2023-02-15T20:52:52.373Z,19.54
2023-02-15T20:55:22.956Z,19.54
2023-02-15T20:57:52.870Z,19.48
2023-02-15T21:00:25.482Z,19.48
2023-02-15T21:02:57.183Z,19.47
2023-02-15T21:05:28.228Z,19.46
2023-02-15T21:07:57.765Z,19.45
2023-02-15T21:10:29.037Z,19.42
2023-02-15T21:12:59.830Z,19.41
2023-02-15T21:15:31.649Z,19.41
2023-02-15T21:18:02.050Z,19.40
2023-02-15T21:20:31.168Z,19.43
2023-02-15T21:23:02.978Z,19.38
2023-02-15T21:25:34.514Z,19.40
2023-02-15T21:28:02.720Z,19.36
2023-02-15T21:30:31.023Z,19.37
2023-02-15T21:32:59.290Z,19.34
2023-02-15T21:35:27.902Z,19.35
2023-02-15T21:37:56.333Z,19.34
2023-02-15T21:40:30.407Z,19.29
2023-02-15T21:43:02.764Z,19.29
2023-02-15T21:45:35.197Z,19.26
2023-02-15T21:48:03.452Z,19.27
2023-02-15T21:50:34.692Z,19.26
2023-02-15T21:53:03.855Z,19.25
2023-02-15T21:55:32.472Z,19.22
2023-02-15T21:58:00.585Z,19.23
2023-02-15T22:00:29.782Z,19.24
2023-02-15T22:02:59.968Z,19.24
2023-02-15T22:05:29.861Z,19.22
2023-02-15T22:07:57.777Z,19.22
2023-02-15T22:10:29.172Z,19.22
2023-02-15T22:12:56.725Z,19.18
2023-02-15T22:15:25.012Z,19.17
2023-02-15T22:17:54.143Z,19.21
2023-02-15T22:20:22.899Z,19.18
2023-02-15T22:22:51.025Z,19.16
2023-02-15T22:25:20.040Z,19.17
2023-02-15T22:27:48.308Z,19.17
2023-02-15T22:30:19.484Z,19.17
2023-02-15T22:32:46.935Z,19.14
2023-02-15T22:35:17.249Z,19.10
2023-02-15T22:37:44.583Z,19.12
2023-02-15T22:40:14.730Z,19.12
2023-02-15T22:42:42.837Z,19.12
2023-02-15T22:45:15.826Z,19.13
2023-02-15T22:47:42.827Z,19.12
2023-02-15T22:50:12.993Z,19.10
2023-02-15T22:52:40.178Z,19.09
2023-02-15T22:55:07.343Z,19.09
2023-02-15T22:57:34.352Z,19.07
2023-02-15T23:00:01.724Z,19.08
2023-02-15T23:02:28.658Z,19.08
2023-02-15T23:04:55.685Z,19.07
2023-02-15T23:07:23.577Z,19.04
2023-02-15T23:09:51.555Z,19.09
2023-02-15T23:12:20.019Z,19.05
2023-02-15T23:14:47.238Z,19.04
2023-02-15T23:17:14.233Z,19.05
2023-02-15T23:19:41.385Z,19.04
2023-02-15T23:22:11.541Z,19.03
2023-02-15T23:24:38.805Z,19.01
2023-02-15T23:27:08.798Z,19.02
2023-02-15T23:29:35.768Z,19.02
2023-02-15T23:32:02.748Z,18.98
2023-02-15T23:34:30.569Z,19.00
2023-02-15T23:36:57.687Z,18.98
2023-02-15T23:39:29.202Z,18.96
2023-02-15T23:41:56.287Z,18.96
2023-02-15T23:44:23.292Z,19.00
2023-02-15T23:46:50.479Z,18.96
2023-02-15T23:49:19.772Z,18.94
2023-02-15T23:51:47.927Z,18.94
2023-02-15T23:54:15.952Z,18.90
2023-02-15T23:56:43.520Z,18.92
2023-02-15T23:59:13.599Z,18.92
